SBOSBO STR / EDDS
Speedbird OnlineSpeedbird Online STR / EDDS

Stuttgart Airport
14:09 4.6°C

Location Stuttgart, Germany
Latitude: 48.689899444599995
Longitude: 9.22196006775
Web Airport Website | Wikipedia
Altitude 389 Meter / 1276 Feet
Distance 719 KM / 447 Miles
from London.
Time Zone UTC +1 hours (Europe/Berlin)
Codes IATA: STR
ICAO: EDDS
Currency £1 equals EUR 1.14
Runways
RunwayLength (m)Surface
073345Concrete
253345Concrete
Radio
TypeDescriptionFrequency
APPLangen Radar Approach119.2
ATISATIS126.13
CLDCLNC DEL121.915
DIRStuttgart Director119.85
GNDStuttgart Ground118.605
INFOLANGEN INFO128.95
MISCDEICING121.63
RDRLANGEN RADAR119.2
RMPAPRON121.7
TWRTWR118.805
Live ATC
METAR EDDS 311250Z AUTO 23011KT 190V260 9999 BKN027 04/M01 Q1025 NOSIG
TAF TAF EDDS 311100Z 3112/0112 22008KT 9999 BKN020 PROB30 TEMPO 3122/0104 4500 -RADZ BKN010 PROB30 TEMPO 0104/0109 4000 -DZ
Weather As Of 31 Jan 2023 14:09
Description Light rain
Wind 20 km/h from South-West (230°)
Cloud Cover 75%
Precipitation Rain: none, Snow: none
Sunrise 07:54
Sunset 17:18
Rotations During the last 90 days there were
162 flights from LHR
161 flights to LHR



Support Speedbird Online

© 2017-2023 Speedbird Online